Time;durP1;ratioP1;P1;durP2;ratioP2;P2;SDS_P1;SDS_P2;PMS_P1;PMS_P2;Temp;Humidity;BMP_temperature;BMP_pressure;BME280_temperature;BME280_humidity;BME280_pressure;Samples;Min_cycle;Max_cycle;Signal;HPM_P1;HPM_P2
2022/09/15 00:02:17;;;;;;;11.13;10.83;;;14.50;99.90;15.30;100597.00;;;;5035670;28;20195;-78
2022/09/15 00:04:43;;;;;;;10.77;10.47;;;14.50;99.90;15.00;100596.00;;;;5034323;28;20197;-77
2022/09/15 00:07:09;;;;;;;11.30;11.00;;;14.30;99.90;15.00;100567.00;;;;5050613;28;20166;-78
2022/09/15 00:09:35;;;;;;;10.70;10.40;;;14.30;99.90;15.10;100594.00;;;;5035662;28;20178;-77
2022/09/15 00:12:02;;;;;;;11.27;10.97;;;14.20;99.90;14.90;100599.00;;;;5034332;28;20188;-77
2022/09/15 00:14:28;;;;;;;11.20;10.90;;;14.10;99.90;15.00;100594.00;;;;5035697;28;20184;-77
2022/09/15 00:16:54;;;;;;;11.43;11.13;;;14.10;99.90;15.00;100597.00;;;;5034605;28;20547;-78
2022/09/15 00:19:23;;;;;;;11.40;11.10;;;14.10;99.90;15.20;100601.00;;;;5033925;28;20743;-78
2022/09/15 00:21:49;;;;;;;10.50;10.20;;;14.10;99.90;15.30;100591.00;;;;5034112;28;20191;-78
2022/09/15 00:24:14;;;;;;;10.20;9.90;;;14.40;99.90;14.80;100599.00;;;;5035465;28;20161;-78
2022/09/15 00:26:40;;;;;;;10.43;10.13;;;14.10;99.90;15.00;100601.00;;;;5035801;28;20219;-78
2022/09/15 00:29:06;;;;;;;10.87;10.57;;;14.10;99.90;15.10;100594.00;;;;5035197;28;20176;-78
2022/09/15 00:31:32;;;;;;;10.60;10.30;;;14.20;99.90;15.10;100592.00;;;;5035275;28;20279;-78
2022/09/15 00:34:01;;;;;;;10.20;9.90;;;14.10;99.90;14.80;100591.00;;;;5017189;28;20187;-78
2022/09/15 00:36:28;;;;;;;9.93;9.63;;;14.00;99.90;15.30;100595.00;;;;5050900;28;20185;-78
2022/09/15 00:38:55;;;;;;;10.37;9.77;;;14.20;99.90;15.50;100566.00;;;;5050186;28;20812;-78
2022/09/15 00:41:23;;;;;;;9.03;8.73;;;14.40;99.90;15.60;100594.00;;;;5050286;28;20185;-78
2022/09/15 00:44:02;;;;;;;8.00;7.70;;;14.60;99.90;15.90;100570.00;;;;5033601;28;20538;-78
2022/09/15 00:46:34;;;;;;;10.67;10.17;;;14.90;99.90;15.80;100605.00;;;;5034061;28;20222;-78
2022/09/15 00:49:16;;;;;;;7.63;7.43;;;14.90;99.90;16.00;100594.00;;;;5016666;28;20449;-78
2022/09/15 00:51:52;;;;;;;7.17;6.97;;;15.00;99.90;15.90;100601.00;;;;5034772;28;20203;-78
2022/09/15 00:54:24;;;;;;;7.70;7.50;;;15.10;99.90;15.50;100592.00;;;;5049912;28;20198;-78
2022/09/15 00:56:54;;;;;;;7.87;7.67;;;15.00;99.90;15.80;100612.00;;;;5049552;28;20653;-78
2022/09/15 00:59:28;;;;;;;8.07;7.87;;;15.00;99.90;15.90;100589.00;;;;5050302;28;20592;-76
2022/09/15 01:02:15;;;;;;;7.47;7.27;;;15.10;99.90;15.30;100604.00;;;;5033379;28;20204;-76
2022/09/15 01:04:41;;;;;;;6.80;6.60;;;14.70;99.90;15.60;100601.00;;;;5049631;28;20599;-76
2022/09/15 01:07:26;;;;;;;7.27;7.07;;;14.90;99.90;15.60;100606.00;;;;5050445;28;20185;-76
2022/09/15 01:09:59;;;;;;;8.10;7.90;;;15.00;99.90;15.90;100594.00;;;;5033031;28;20212;-76
2022/09/15 01:12:27;;;;;;;8.70;8.40;;;15.00;99.90;16.00;100590.00;;;;5049857;28;20217;-77
2022/09/15 01:14:56;;;;;;;9.47;9.17;;;15.10;99.90;15.80;100593.00;;;;5033319;28;20192;-77
2022/09/15 01:17:37;;;;;;;8.20;8.00;;;15.00;99.90;16.00;100613.00;;;;5050211;28;20201;-76
2022/09/15 01:20:44;;;;;;;8.40;8.17;;;15.10;99.90;16.00;100601.00;;;;5033993;28;20187;-77
2022/09/15 01:23:31;;;;;;;6.97;6.77;;;15.10;99.90;15.90;100599.00;;;;5033415;28;20197;-81
2022/09/15 01:26:46;;;;;;;7.60;7.40;;;15.10;99.90;16.20;100605.00;;;;5034212;28;20572;-76
2022/09/15 01:29:36;;;;;;;6.97;6.77;;;15.20;99.90;14.90;100608.00;;;;5032922;28;20560;-76
2022/09/15 01:35:47;;;;;;;7.50;7.13;;;14.50;99.90;15.50;100609.00;;;;5032857;28;20192;-76
2022/09/15 01:38:29;;;;;;;7.07;6.80;;;14.70;99.90;15.00;100605.00;;;;5049649;28;20733;-77
2022/09/15 01:41:15;;;;;;;5.67;5.47;;;14.70;99.90;14.70;100599.00;;;;5032548;28;20221;-77
2022/09/15 01:44:38;;;;;;;5.60;5.40;;;14.50;99.90;15.20;100595.00;;;;5032556;28;20236;-77
2022/09/15 01:47:08;;;;;;;6.07;5.87;;;14.50;99.90;15.50;100599.00;;;;5005083;28;20197;-77
2022/09/15 01:49:45;;;;;;;6.23;6.03;;;14.70;99.90;14.60;100600.00;;;;5049235;28;20179;-76
2022/09/15 01:52:17;;;;;;;5.70;5.50;;;14.50;99.90;14.60;100599.00;;;;5049180;28;20210;-77
2022/09/15 01:54:48;;;;;;;8.20;7.90;;;14.40;99.90;14.90;100604.00;;;;5032458;28;20667;-77
2022/09/15 01:57:21;;;;;;;7.00;6.80;;;14.50;99.90;15.20;100603.00;;;;5048914;28;20189;-77
2022/09/15 01:59:53;;;;;;;6.80;6.60;;;14.50;99.90;15.20;100579.00;;;;5048426;28;20171;-76
2022/09/15 02:02:32;;;;;;;8.97;8.67;;;14.70;99.90;15.50;100594.00;;;;5032296;28;20559;-77
2022/09/15 02:05:05;;;;;;;6.60;6.40;;;14.80;99.90;15.30;100608.00;;;;5049227;28;20577;-77
2022/09/15 02:08:09;;;;;;;6.87;6.67;;;14.80;99.90;15.30;100607.00;;;;5048748;28;20268;-77
2022/09/15 02:10:58;;;;;;;7.43;7.23;;;14.70;99.90;15.20;100597.00;;;;5032065;28;20222;-76
2022/09/15 02:14:20;;;;;;;6.57;6.37;;;14.70;99.90;15.30;100609.00;;;;5048980;28;20234;-77
2022/09/15 02:16:51;;;;;;;7.13;6.93;;;14.60;99.90;15.40;100604.00;;;;5014913;28;20189;-77
2022/09/15 02:19:20;;;;;;;6.80;6.60;;;14.80;99.90;15.10;100570.00;;;;5049198;28;20194;-76
2022/09/15 02:22:09;;;;;;;6.50;6.30;;;14.70;99.90;15.00;100608.00;;;;5033296;28;20635;-77
2022/09/15 02:25:01;;;;;;;6.20;6.00;;;14.60;99.90;15.20;100573.00;;;;5048451;28;20273;-76
2022/09/15 02:27:33;;;;;;;5.53;5.40;;;14.70;99.90;14.70;100603.00;;;;5048781;28;20193;-76
2022/09/15 02:30:05;;;;;;;5.00;4.90;;;14.50;99.90;14.70;100601.00;;;;5048539;28;20270;-76
2022/09/15 02:32:33;;;;;;;5.63;5.43;;;14.50;99.90;14.90;100599.00;;;;5031839;28;20321;-76
2022/09/15 02:35:05;;;;;;;6.47;6.17;;;14.50;99.90;15.00;100594.00;;;;5031907;28;20201;-77
2022/09/15 02:37:32;;;;;;;4.80;4.70;;;14.60;99.90;14.90;100600.00;;;;5048384;28;20204;-76
2022/09/15 02:40:02;;;;;;;5.53;5.33;;;14.50;99.90;15.00;100594.00;;;;5048279;28;20167;-77
2022/09/15 02:42:31;;;;;;;4.60;4.50;;;14.60;99.90;15.00;100600.00;;;;5048640;28;20197;-77
2022/09/15 02:44:58;;;;;;;4.73;4.50;;;14.50;99.90;14.80;100561.00;;;;5048668;28;20234;-77
2022/09/15 02:47:24;;;;;;;5.73;5.33;;;14.50;99.90;15.20;100570.00;;;;5065778;28;20202;-77
2022/09/15 02:49:50;;;;;;;5.93;5.73;;;14.60;99.90;15.00;100590.00;;;;5065007;28;20274;-77
2022/09/15 02:52:16;;;;;;;5.97;5.67;;;14.60;99.90;14.90;100601.00;;;;5033213;28;20766;-76
2022/09/15 02:54:42;;;;;;;8.57;7.87;;;14.50;99.90;15.40;100597.00;;;;5048693;28;20296;-76
2022/09/15 02:57:08;;;;;;;7.90;7.50;;;14.70;99.90;15.20;100596.00;;;;5032996;28;20172;-76
2022/09/15 03:02:23;;;;;;;4.40;4.30;;;14.60;99.90;14.90;100589.00;;;;5060143;28;20230;-76
2022/09/15 03:04:49;;;;;;;4.50;4.40;;;14.70;99.90;15.40;100597.00;;;;5015719;28;20189;-76
2022/09/15 03:07:17;;;;;;;4.63;4.53;;;14.70;99.90;14.90;100598.00;;;;5065058;28;20168;-76
2022/09/15 03:09:43;;;;;;;5.23;4.83;;;14.60;99.90;15.00;100580.00;;;;5064918;28;20269;-75
2022/09/15 03:12:11;;;;;;;10.63;7.60;;;14.60;99.90;14.90;100572.00;;;;5044673;28;20203;-75
2022/09/15 03:14:37;;;;;;;5.90;5.60;;;14.50;99.90;15.10;100594.00;;;;5028021;28;20298;-75
2022/09/15 03:17:03;;;;;;;4.30;4.20;;;14.60;99.90;15.20;100598.00;;;;5013245;28;20538;-75
2022/09/15 03:19:29;;;;;;;4.77;4.67;;;14.70;99.90;15.10;100597.00;;;;5031042;28;20186;-77
2022/09/15 03:21:56;;;;;;;5.00;4.90;;;14.70;99.90;15.10;100599.00;;;;5031955;28;20179;-77
2022/09/15 03:24:22;;;;;;;5.77;5.57;;;14.70;99.90;15.10;100608.00;;;;4999264;28;20204;-77
2022/09/15 03:26:48;;;;;;;4.27;4.17;;;14.60;99.90;15.40;100604.00;;;;5016596;28;20682;-78
2022/09/15 03:29:15;;;;;;;5.70;5.50;;;14.70;99.90;15.20;100600.00;;;;5031613;28;20192;-77
2022/09/15 03:31:41;;;;;;;5.40;5.30;;;14.70;99.90;15.80;100597.00;;;;5031714;28;20205;-76
2022/09/15 03:34:07;;;;;;;6.03;5.83;;;15.00;99.90;15.80;100598.00;;;;4999141;28;20692;-77
2022/09/15 03:36:33;;;;;;;5.30;5.20;;;15.10;99.90;15.10;100565.00;;;;5016576;28;20273;-77
2022/09/15 03:39:02;;;;;;;5.23;5.03;;;14.80;99.90;14.80;100609.00;;;;5016380;28;20752;-76
2022/09/15 03:41:28;;;;;;;4.60;4.50;;;14.70;99.90;15.00;100611.00;;;;5038101;28;20179;-76
2022/09/15 03:43:54;;;;;;;5.77;5.47;;;14.60;99.90;14.80;100579.00;;;;5035686;28;20529;-77
2022/09/15 03:46:20;;;;;;;6.33;6.03;;;14.50;99.90;15.40;100608.00;;;;5036025;28;20685;-77
2022/09/15 03:48:46;;;;;;;4.80;4.70;;;14.70;99.90;14.90;100604.00;;;;5036096;28;20167;-76
2022/09/15 03:51:12;;;;;;;4.80;4.70;;;14.60;99.90;14.90;100616.00;;;;5035932;28;20168;-76
2022/09/15 03:53:40;;;;;;;4.57;4.47;;;14.50;99.90;15.50;100611.00;;;;5051508;28;20186;-76
2022/09/15 03:56:25;;;;;;;6.47;6.27;;;14.70;99.90;15.10;100610.00;;;;5051420;28;20189;-76
2022/09/15 03:58:51;;;;;;;8.83;8.30;;;14.60;99.90;15.60;100607.00;;;;5051272;28;20183;-77
2022/09/15 04:01:18;;;;;;;5.57;5.37;;;14.80;99.90;15.70;100598.00;;;;5034773;28;20280;-76
2022/09/15 04:03:46;;;;;;;9.00;8.33;;;14.90;99.90;15.40;100587.00;;;;5051090;28;20522;-76
2022/09/15 04:06:12;;;;;;;4.00;3.90;;;14.80;99.90;15.70;100582.00;;;;5051024;28;20637;-76
2022/09/15 04:08:38;;;;;;;5.77;5.57;;;14.90;99.90;16.00;100600.00;;;;5050787;28;20264;-77
2022/09/15 04:11:06;;;;;;;6.90;6.70;;;15.10;99.90;16.10;100606.00;;;;5050951;28;20267;-76
2022/09/15 04:13:33;;;;;;;6.47;6.27;;;15.20;99.90;15.20;100605.00;;;;5050392;28;20221;-76
2022/09/15 04:16:07;;;;;;;7.60;7.30;;;14.90;99.90;15.60;100604.00;;;;5034345;28;20224;-76
2022/09/15 04:18:34;;;;;;;6.83;6.47;;;14.90;99.90;15.50;100589.00;;;;5042666;28;20269;-76
2022/09/15 04:21:04;;;;;;;6.57;6.37;;;14.80;99.90;15.00;100606.00;;;;5014469;28;20336;-76
2022/09/15 04:23:30;;;;;;;6.60;6.40;;;14.60;99.90;15.70;100600.00;;;;5047061;28;20194;-76
2022/09/15 04:26:02;;;;;;;5.70;5.50;;;14.80;99.90;15.40;100588.00;;;;5052874;28;20204;-76
2022/09/15 04:28:32;;;;;;;5.70;5.50;;;14.70;99.90;15.00;100588.00;;;;5017593;28;20266;-76
2022/09/15 04:31:13;;;;;;;5.10;4.90;;;14.50;99.90;15.20;100570.00;;;;5034081;28;20188;-75
2022/09/15 04:33:41;;;;;;;5.73;5.53;;;14.50;99.90;15.50;100605.00;;;;5017467;28;20546;-76
2022/09/15 04:36:17;;;;;;;7.33;7.13;;;14.70;99.90;15.70;100589.00;;;;5033934;28;20185;-76
2022/09/15 04:38:44;;;;;;;5.63;5.43;;;14.80;99.90;15.20;100603.00;;;;5035180;28;20190;-76
2022/09/15 04:41:11;;;;;;;6.83;6.63;;;14.70;99.90;15.20;100587.00;;;;5031443;28;20719;-76
2022/09/15 04:43:37;;;;;;;7.30;7.10;;;14.60;99.90;15.20;100603.00;;;;5033361;28;20261;-76
2022/09/15 04:46:03;;;;;;;7.00;6.57;;;14.60;99.90;15.70;100607.00;;;;5050340;28;20216;-76
2022/09/15 04:48:30;;;;;;;5.77;5.57;;;14.80;99.90;15.90;100592.00;;;;5050181;28;20193;-76
2022/09/15 04:51:06;;;;;;;7.73;7.43;;;15.00;99.90;15.80;100597.00;;;;5050229;28;20177;-76
2022/09/15 04:53:32;;;;;;;6.23;6.03;;;15.00;99.90;15.40;100560.00;;;;5033674;28;20201;-75
2022/09/15 04:56:03;;;;;;;5.60;5.40;;;14.90;99.90;15.50;100587.00;;;;5034816;28;20292;-76
2022/09/15 04:58:29;;;;;;;7.13;6.83;;;14.80;99.90;15.90;100611.00;;;;5050263;28;20272;-76
2022/09/15 05:00:55;;;;;;;7.70;7.50;;;14.90;99.90;15.40;100603.00;;;;5034712;28;20667;-76
2022/09/15 05:03:22;;;;;;;7.50;7.30;;;14.90;99.90;16.00;100603.00;;;;5050058;28;20266;-77
2022/09/15 05:05:49;;;;;;;7.80;7.60;;;15.00;99.90;16.10;100598.00;;;;5050019;28;20209;-76
2022/09/15 05:08:15;;;;;;;8.83;8.53;;;15.10;99.90;15.50;100589.00;;;;5034761;28;20205;-77
2022/09/15 05:10:41;;;;;;;7.13;6.93;;;15.00;99.90;15.50;100592.00;;;;5034204;28;20181;-76
2022/09/15 05:13:07;;;;;;;9.70;9.03;;;14.80;99.90;15.80;100597.00;;;;5049372;28;20214;-76
2022/09/15 05:15:32;;;;;;;7.30;7.10;;;15.00;99.90;15.60;100598.00;;;;5049697;28;20182;-76
2022/09/15 05:17:58;;;;;;;6.73;6.53;;;14.90;99.90;15.70;100610.00;;;;5034394;28;20187;-78
2022/09/15 05:20:24;;;;;;;6.43;6.23;;;14.90;99.90;15.90;100611.00;;;;5021720;28;20194;-78
2022/09/15 05:22:51;;;;;;;7.17;6.97;;;15.10;99.90;15.50;100607.00;;;;5014444;28;20180;-78
2022/09/15 05:25:17;;;;;;;11.00;8.47;;;15.00;99.90;14.90;100616.00;;;;5014289;28;20174;-78
2022/09/15 05:27:43;;;;;;;6.13;5.93;;;14.70;99.90;14.90;100605.00;;;;5014471;28;20253;-78
2022/09/15 05:30:09;;;;;;;6.17;5.97;;;14.60;99.90;14.90;100609.00;;;;5014065;28;20276;-79
2022/09/15 05:32:35;;;;;;;5.47;5.37;;;14.50;99.90;14.90;100582.00;;;;5014479;28;20246;-79
2022/09/15 05:35:01;;;;;;;7.10;6.90;;;14.40;99.90;15.40;100627.00;;;;5012992;28;20674;-79
2022/09/15 05:37:27;;;;;;;5.23;5.03;;;14.60;99.90;14.90;100631.00;;;;5014583;28;20178;-77
2022/09/15 05:39:53;;;;;;;5.27;5.07;;;14.50;99.90;15.30;100626.00;;;;5012571;28;20241;-77
2022/09/15 05:42:19;;;;;;;8.30;7.87;;;14.60;99.90;15.60;100610.00;;;;5020543;28;20208;-77
2022/09/15 05:44:52;;;;;;;6.67;6.23;;;14.80;99.90;15.30;100614.00;;;;5033928;28;20602;-77
2022/09/15 05:47:35;;;;;;;5.73;5.53;;;14.70;99.90;15.40;100609.00;;;;5034039;28;20185;-77
2022/09/15 05:50:01;;;;;;;6.27;6.07;;;14.70;99.90;15.70;100616.00;;;;5032916;28;20193;-78
2022/09/15 05:52:27;;;;;;;7.10;6.90;;;14.80;99.90;15.50;100615.00;;;;5049033;28;20245;-78
2022/09/15 05:54:52;;;;;;;9.57;9.17;;;14.80;99.90;15.70;100630.00;;;;5033325;28;20644;-79
2022/09/15 05:57:21;;;;;;;6.07;5.87;;;14.90;99.90;15.80;100635.00;;;;5033754;28;20175;-79
2022/09/15 05:59:47;;;;;;;6.30;6.10;;;14.90;99.90;15.70;100626.00;;;;5032331;28;20185;-79
2022/09/15 06:02:13;;;;;;;7.33;7.13;;;14.90;99.90;15.70;100633.00;;;;5032475;28;20187;-81
2022/09/15 06:04:40;;;;;;;6.77;6.57;;;14.90;99.90;15.10;100644.00;;;;5032475;28;20190;-81
2022/09/15 06:07:06;;;;;;;7.20;7.00;;;14.80;99.90;15.10;100644.00;;;;5048860;28;20299;-78
2022/09/15 06:09:32;;;;;;;7.83;7.43;;;14.70;99.90;15.70;100624.00;;;;5033144;28;20202;-79
2022/09/15 06:12:17;;;;;;;7.33;7.03;;;14.90;99.90;15.80;100647.00;;;;5031888;28;20199;-79
2022/09/15 06:14:44;;;;;;;7.40;7.20;;;15.00;99.90;16.00;100656.00;;;;5049079;28;20198;-80
2022/09/15 06:17:10;;;;;;;7.67;7.37;;;15.20;99.90;16.30;100660.00;;;;5033436;28;20194;-79
2022/09/15 06:19:36;;;;;;;8.90;8.60;;;15.30;99.90;16.60;100661.00;;;;5048605;28;20706;-80
2022/09/15 06:22:02;;;;;;;6.20;6.00;;;15.60;99.90;16.80;100657.00;;;;5048493;28;20179;-79
2022/09/15 06:24:28;;;;;;;6.10;5.90;;;15.80;99.90;16.90;100645.00;;;;5033236;28;20175;-77
2022/09/15 06:26:54;;;;;;;7.30;7.10;;;16.00;99.90;16.50;100654.00;;;;5049026;28;20635;-79
2022/09/15 06:29:20;;;;;;;8.30;8.00;;;15.90;99.90;16.60;100659.00;;;;5033646;28;20182;-80
2022/09/15 06:31:46;;;;;;;7.83;7.63;;;15.80;99.90;17.10;100661.00;;;;5033529;28;20242;-79
2022/09/15 06:34:12;;;;;;;8.10;7.90;;;16.00;99.90;17.10;100664.00;;;;5033535;28;20179;-80
2022/09/15 06:36:37;;;;;;;8.63;8.33;;;16.20;99.90;16.40;100665.00;;;;5032947;28;20179;-80
2022/09/15 06:39:04;;;;;;;7.80;7.60;;;15.90;99.90;16.60;100662.00;;;;5033067;28;20179;-79
2022/09/15 06:41:30;;;;;;;7.90;7.70;;;16.00;99.90;17.00;100666.00;;;;5048580;28;20646;-81
2022/09/15 06:43:56;;;;;;;7.50;7.30;;;16.10;99.90;16.10;100679.00;;;;5032919;28;20607;-78
2022/09/15 06:46:24;;;;;;;12.80;11.73;;;15.80;99.90;16.80;100685.00;;;;5032982;28;20188;-80
2022/09/15 06:48:52;;;;;;;7.50;7.30;;;16.00;99.90;16.80;100653.00;;;;5032177;28;20272;-78
2022/09/15 06:51:23;;;;;;;9.77;9.47;;;16.00;99.90;17.20;100670.00;;;;5047993;28;20176;-79
2022/09/15 06:53:49;;;;;;;8.27;8.07;;;16.20;99.90;17.20;100678.00;;;;5050120;28;20187;-82
2022/09/15 06:56:18;;;;;;;9.33;8.93;;;16.40;99.90;17.20;100679.00;;;;5037100;28;20654;-82
2022/09/15 06:58:48;;;;;;;10.53;9.73;;;16.40;99.90;17.00;100684.00;;;;5052395;28;20282;-82
2022/09/15 07:01:53;;;;;;;10.37;8.03;;;16.30;99.90;16.90;100694.00;;;;5052237;28;20594;-79
2022/09/15 07:04:20;;;;;;;8.10;7.90;;;16.20;99.90;17.10;100696.00;;;;5052332;28;20218;-83
2022/09/15 07:06:47;;;;;;;8.30;8.00;;;16.30;99.90;17.30;100698.00;;;;5052193;28;20190;-83
2022/09/15 07:09:13;;;;;;;7.63;7.43;;;16.40;99.90;16.80;100672.00;;;;5052230;28;20575;-82
2022/09/15 07:11:50;;;;;;;6.67;6.33;;;16.30;99.90;16.30;100698.00;;;;5053340;28;20199;-82
2022/09/15 07:14:17;;;;;;;5.80;5.60;;;16.00;99.90;16.50;100699.00;;;;5036738;28;20638;-82
2022/09/15 07:16:45;;;;;;;4.47;4.37;;;16.00;99.90;16.00;100702.00;;;;5052850;28;20182;-82
2022/09/15 07:19:11;;;;;;;4.73;4.63;;;15.70;99.90;16.40;100712.00;;;;5036652;28;20250;-82
2022/09/15 07:21:40;;;;;;;4.70;4.60;;;15.70;99.90;17.30;100716.00;;;;5051935;28;20268;-81
2022/09/15 07:24:11;;;;;;;7.13;6.67;;;16.20;99.90;17.40;100722.00;;;;5036708;28;20181;-82
2022/09/15 07:26:40;;;;;;;5.50;5.30;;;16.40;99.90;17.10;100718.00;;;;5051878;28;20650;-82
2022/09/15 07:29:06;;;;;;;6.13;5.83;;;16.50;99.90;16.90;100723.00;;;;5035425;28;20212;-81
2022/09/15 07:31:35;;;;;;;3.60;3.50;;;16.40;99.90;16.80;100725.00;;;;5036574;28;20645;-81
2022/09/15 07:34:01;;;;;;;4.60;4.40;;;16.40;99.90;16.80;100730.00;;;;5035024;28;20196;-81
2022/09/15 07:36:29;;;;;;;4.07;3.97;;;16.30;99.90;16.10;100718.00;;;;5051613;28;20290;-82
2022/09/15 07:38:56;;;;;;;3.97;3.87;;;16.00;99.90;16.20;100720.00;;;;5052043;28;20192;-81
2022/09/15 07:41:29;;;;;;;3.17;3.07;;;15.90;99.90;16.30;100730.00;;;;5036382;28;20556;-81
2022/09/15 07:43:58;;;;;;;4.03;3.93;;;15.90;99.90;16.10;100726.00;;;;5051481;28;20670;-82
2022/09/15 07:46:30;;;;;;;4.37;4.17;;;15.90;99.90;16.80;100723.00;;;;5051887;28;20176;-80
2022/09/15 07:48:56;;;;;;;2.70;2.60;;;16.10;99.90;16.20;100727.00;;;;5034693;28;20193;-70
2022/09/15 07:51:24;;;;;;;4.50;4.10;;;16.00;99.90;16.10;100735.00;;;;5051633;28;20220;-79
2022/09/15 07:53:52;;;;;;;2.60;2.50;;;15.90;99.90;16.60;100734.00;;;;5051877;28;20165;-79
2022/09/15 07:56:22;;;;;;;3.70;3.60;;;15.90;99.90;16.70;100746.00;;;;5035348;28;20555;-80
2022/09/15 07:58:48;;;;;;;4.57;4.47;;;16.10;99.90;17.60;100738.00;;;;5051479;28;20176;-79
2022/09/15 08:01:17;;;;;;;5.03;4.83;;;16.50;99.90;18.10;100746.00;;;;5035534;28;20272;-79
2022/09/15 08:03:51;;;;;;;4.97;4.87;;;16.90;99.90;17.60;100735.00;;;;5035563;28;20192;-79
2022/09/15 08:06:20;;;;;;;4.80;4.70;;;17.00;99.90;17.60;100743.00;;;;5034638;28;20192;-79
2022/09/15 08:08:50;;;;;;;4.20;4.10;;;16.90;99.90;17.00;100734.00;;;;5034394;28;20698;-79
2022/09/15 08:11:22;;;;;;;4.10;4.00;;;16.70;99.90;17.20;100735.00;;;;5051060;28;20247;-79
2022/09/15 08:13:55;;;;;;;4.33;4.23;;;16.70;99.90;17.50;100718.00;;;;5051347;28;20198;-77
2022/09/15 08:16:23;;;;;;;3.77;3.67;;;16.70;99.90;17.10;100743.00;;;;5035642;28;20217;-77
2022/09/15 08:18:59;;;;;;;3.70;3.60;;;16.80;99.90;17.70;100739.00;;;;5034175;28;20588;-77
2022/09/15 08:21:45;;;;;;;3.30;3.20;;;17.00;99.90;18.70;100747.00;;;;5035592;28;20158;-76
2022/09/15 08:24:54;;;;;;;3.63;3.53;;;17.70;99.90;18.10;100745.00;;;;5051158;28;20185;-75
2022/09/15 08:27:46;;;;;;;4.03;3.70;;;17.90;99.90;19.10;100753.00;;;;5033975;28;20180;-76
2022/09/15 08:31:03;;;;;;;2.83;2.73;;;18.20;99.90;19.60;100757.00;;;;5048511;28;20196;-76
2022/09/15 08:33:30;;;;;;;2.45;2.45;;;18.70;99.90;19.70;100768.00;;;;5017001;28;20252;-76
2022/09/15 08:36:21;;;;;;;2.40;2.37;;;19.00;99.90;19.50;100764.00;;;;5034157;28;20186;-76
2022/09/15 08:39:47;;;;;;;1.30;1.30;;;18.90;99.90;20.00;100766.00;;;;5051033;28;20677;-76
2022/09/15 08:42:42;;;;;;;1.70;1.60;;;19.10;99.90;19.00;100745.00;;;;5033900;28;20223;-76
2022/09/15 08:45:25;;;;;;;0.60;0.60;;;18.90;99.90;19.00;100777.00;;;;5033731;28;20193;-77
2022/09/15 08:48:07;;;;;;;0.73;0.73;;;18.60;99.90;18.40;100781.00;;;;5050195;28;20205;-76
2022/09/15 08:50:46;;;;;;;0.85;0.85;;;18.50;99.90;20.20;100751.00;;;;5033968;28;20197;-77
2022/09/15 08:53:58;;;;;;;1.67;1.67;;;19.00;99.90;21.70;100802.00;;;;5050289;28;20211;-70
2022/09/15 08:57:05;;;;;;;3.17;3.08;;;20.10;99.90;22.60;100813.00;;;;5061341;28;20195;-70
2022/09/15 08:59:34;;;;;;;0.90;0.90;;;21.40;99.90;21.50;100801.00;;;;5033815;28;20186;-85
2022/09/15 09:02:25;;;;;;;1.00;1.00;;;20.70;99.90;22.10;100807.00;;;;5049918;28;20218;-85
2022/09/15 09:05:28;;;;;;;2.83;2.75;;;21.00;99.90;23.60;100822.00;;;;5034363;28;20265;-85
2022/09/15 09:08:15;;;;;;;0.80;0.80;;;22.20;99.90;23.20;100863.00;;;;5049645;28;20178;-84
2022/09/15 09:10:54;;;;;;;0.80;0.80;;;22.70;99.90;24.20;100862.00;;;;5046392;28;20178;-86
2022/09/15 09:13:54;;;;;;;0.93;0.93;;;23.00;99.90;25.40;100873.00;;;;5016793;28;20230;-90
2022/09/15 09:17:29;;;;;;;0.90;0.90;;;23.80;99.90;26.60;100908.00;;;;5012276;28;20192;-70
2022/09/15 09:20:03;;;;;;;0.60;0.60;;;24.80;99.90;26.40;100892.00;;;;5011966;28;20278;-70
2022/09/15 09:23:16;;;;;;;0.70;0.70;;;25.30;99.90;25.10;100914.00;;;;5029958;28;20186;-70
2022/09/15 09:26:25;;;;;;;0.40;0.40;;;25.10;99.90;24.40;100918.00;;;;5012114;28;20168;-70
2022/09/15 09:29:32;;;;;;;0.20;0.20;;;24.40;99.90;24.40;100904.00;;;;5012578;28;20546;-70
2022/09/15 09:32:43;;;;;;;0.93;0.93;;;23.50;99.90;24.70;100905.00;;;;5044663;28;20309;-70
2022/09/15 09:35:36;;;;;;;0.25;0.25;;;23.50;99.90;24.40;100905.00;;;;5036127;28;20265;-68
2022/09/15 09:38:03;;;;;;;0.40;0.40;;;23.40;99.90;24.40;100897.00;;;;5041252;28;20265;-70
2022/09/15 09:40:30;;;;;;;0.30;0.30;;;23.30;99.90;24.30;100879.00;;;;5021486;28;20603;-70
2022/09/15 09:43:11;;;;;;;0.30;0.30;;;23.20;99.90;24.70;100905.00;;;;5032835;28;20186;-69
2022/09/15 09:46:26;;;;;;;0.40;0.40;;;23.40;99.90;24.70;100908.00;;;;5049098;28;20179;-69
2022/09/15 09:49:14;;;;;;;0.20;0.20;;;23.40;99.90;23.40;100897.00;;;;5032812;28;20179;-70
2022/09/15 09:52:02;;;;;;;0.20;0.20;;;22.70;99.90;23.20;100903.00;;;;5049146;28;20225;-69
2022/09/15 09:54:35;;;;;;;0.20;0.20;;;22.20;99.90;23.10;100877.00;;;;5049134;28;20187;-69
2022/09/15 09:57:15;;;;;;;0.85;0.85;;;22.10;99.90;23.40;100914.00;;;;5049181;28;20186;-69
2022/09/15 09:59:49;;;;;;;0.20;0.20;;;22.20;99.90;23.30;100918.00;;;;5048534;28;20195;-69
2022/09/15 10:02:18;;;;;;;0.20;0.20;;;22.10;99.90;23.40;100914.00;;;;5032603;28;20177;-70
2022/09/15 10:05:01;;;;;;;0.20;0.20;;;22.20;99.90;23.00;100916.00;;;;5049148;28;20175;-69
2022/09/15 10:07:32;;;;;;;0.20;0.20;;;21.80;99.90;22.60;100897.00;;;;5049004;28;20253;-70
2022/09/15 10:10:03;;;;;;;0.20;0.20;;;21.60;99.90;21.90;100904.00;;;;5048937;28;20167;-70
2022/09/15 10:13:06;;;;;;;1.63;1.52;;;21.20;99.90;21.30;100910.00;;;;5032247;28;20217;-68
2022/09/15 10:15:34;;;;;;;0.30;0.30;;;20.60;99.90;19.90;100866.00;;;;5048230;28;20240;-69
2022/09/15 10:18:29;;;;;;;0.20;0.20;;;19.70;99.90;19.00;100836.00;;;;5048647;28;20188;-68
2022/09/15 10:20:56;;;;;;;0.30;0.30;;;18.90;99.90;18.20;100813.00;;;;5048572;28;20187;-68
2022/09/15 10:33:49;;;;;;;0.30;0.30;;;16.70;99.90;17.10;100863.00;;;;5070718;28;20555;-67
2022/09/15 10:36:54;;;;;;;0.30;0.30;;;16.80;99.90;17.00;100870.00;;;;5050325;28;20194;-67
2022/09/15 10:40:15;;;;;;;0.40;0.40;;;16.90;99.90;16.90;100866.00;;;;5046604;28;20664;-67
2022/09/15 10:42:51;;;;;;;0.50;0.50;;;16.90;99.90;17.20;100880.00;;;;5048042;28;20204;-68
2022/09/15 10:45:17;;;;;;;0.60;0.60;;;16.90;99.90;17.40;100863.00;;;;5048187;28;20189;-67
2022/09/15 10:47:53;;;;;;;0.50;0.50;;;17.00;99.90;17.00;100870.00;;;;5049151;28;20189;-67
2022/09/15 10:50:29;;;;;;;0.40;0.40;;;16.90;99.90;17.10;100865.00;;;;5030133;28;20635;-68
2022/09/15 10:53:41;;;;;;;0.63;0.63;;;16.80;99.90;17.40;100866.00;;;;5012680;28;20209;-67
2022/09/15 10:56:16;;;;;;;0.50;0.50;;;16.90;99.90;17.90;100864.00;;;;5029990;28;20173;-68
2022/09/15 10:59:35;;;;;;;1.17;1.10;;;17.20;99.90;18.20;100867.00;;;;5030052;28;20175;-68
2022/09/15 11:02:19;;;;;;;0.40;0.40;;;17.40;99.90;18.00;100869.00;;;;5035311;28;20213;-68
2022/09/15 11:05:12;;;;;;;0.40;0.40;;;17.60;99.90;18.50;100868.00;;;;5042308;28;20196;-68
2022/09/15 11:08:01;;;;;;;0.40;0.40;;;17.80;99.90;18.60;100865.00;;;;5065489;28;20192;-68
2022/09/15 11:11:03;;;;;;;0.93;0.93;;;17.90;99.90;19.40;100869.00;;;;5050943;28;20191;-68
2022/09/15 11:14:30;;;;;;;0.40;0.40;;;18.40;99.90;19.70;100870.00;;;;5029864;28;20197;-68
2022/09/15 11:17:17;;;;;;;0.37;0.37;;;18.70;99.90;19.60;100847.00;;;;5021287;28;20264;-69
2022/09/15 11:20:00;;;;;;;0.40;0.40;;;19.00;99.90;20.50;100877.00;;;;5045275;28;20180;-69
2022/09/15 11:22:41;;;;;;;0.30;0.30;;;19.50;99.90;20.70;100880.00;;;;5028994;28;20210;-71
2022/09/15 11:25:35;;;;;;;0.40;0.40;;;19.80;99.90;20.80;100889.00;;;;5028527;28;20257;-68
2022/09/15 11:28:32;;;;;;;0.20;0.20;;;20.00;99.90;20.00;100895.00;;;;5028290;28;20665;-68
2022/09/15 11:31:20;;;;;;;0.20;0.20;;;19.80;99.90;19.70;100885.00;;;;5061716;28;20179;-69
2022/09/15 11:34:19;;;;;;;0.20;0.20;;;19.60;99.90;20.30;100884.00;;;;5045141;28;20205;-69
2022/09/15 11:37:08;;;;;;;0.20;0.20;;;19.70;99.90;21.30;100915.00;;;;5013310;28;20202;-69
2022/09/15 11:39:45;;;;;;;0.93;0.85;;;20.30;99.90;21.80;100925.00;;;;5061473;28;20175;-69